createdAt,value
2017-07-23T00:01:14.345Z,63.10
2017-07-23T00:03:41.928Z,62.80
2017-07-23T00:06:10.270Z,62.90
2017-07-23T00:08:37.812Z,62.80
2017-07-23T00:11:05.506Z,62.30
2017-07-23T00:13:33.099Z,62.30
2017-07-23T00:16:00.641Z,62.10
2017-07-23T00:18:28.954Z,62.30
2017-07-23T00:20:56.547Z,62.20
2017-07-23T00:23:24.108Z,62.30
2017-07-23T00:25:51.706Z,62.40
2017-07-23T00:28:19.258Z,62.50
2017-07-23T00:30:46.848Z,62.60
2017-07-23T00:33:14.528Z,62.80
2017-07-23T00:35:42.109Z,62.80
2017-07-23T00:38:09.779Z,63.00
2017-07-23T00:40:38.126Z,64.00
2017-07-23T00:43:05.676Z,63.40
2017-07-23T00:45:33.259Z,63.60
2017-07-23T00:48:00.811Z,63.90
2017-07-23T00:50:28.389Z,64.00
2017-07-23T00:52:56.744Z,65.30
2017-07-23T00:55:24.326Z,64.60
2017-07-23T00:57:52.637Z,65.50
2017-07-23T01:00:20.185Z,65.50
2017-07-23T01:02:47.755Z,65.90
2017-07-23T01:05:15.295Z,66.10
2017-07-23T01:07:43.006Z,66.50
2017-07-23T01:10:10.556Z,67.10
2017-07-23T01:12:38.302Z,67.60
2017-07-23T01:15:05.865Z,68.20
2017-07-23T01:17:33.403Z,68.30
2017-07-23T01:20:00.985Z,68.40
2017-07-23T01:22:28.532Z,68.40
2017-07-23T01:24:56.089Z,68.60
2017-07-23T01:27:23.653Z,69.10
2017-07-23T01:29:51.193Z,69.10
2017-07-23T01:32:18.783Z,69.30
2017-07-23T01:34:46.329Z,69.60
2017-07-23T01:37:13.874Z,70.60
2017-07-23T01:39:41.449Z,70.40
2017-07-23T01:42:09.003Z,70.50
2017-07-23T01:44:36.581Z,70.80
2017-07-23T01:47:04.135Z,70.90
2017-07-23T01:49:31.688Z,71.00
2017-07-23T01:51:59.252Z,71.10
2017-07-23T01:54:26.857Z,71.40
2017-07-23T01:56:55.179Z,71.60
2017-07-23T01:59:22.723Z,71.60
2017-07-23T02:01:50.355Z,71.70
2017-07-23T02:04:18.000Z,71.50
2017-07-23T02:06:46.355Z,71.50
2017-07-23T02:09:13.907Z,71.50
2017-07-23T02:11:41.452Z,72.10
2017-07-23T02:14:09.147Z,72.70
2017-07-23T02:16:36.703Z,73.20
2017-07-23T02:19:05.025Z,73.90
2017-07-23T02:21:32.597Z,73.80
2017-07-23T02:24:00.244Z,73.90
2017-07-23T02:26:27.832Z,74.40
2017-07-23T02:28:55.550Z,74.50
2017-07-23T02:31:23.109Z,75.00
2017-07-23T02:33:50.670Z,75.30
2017-07-23T02:36:18.257Z,76.00
2017-07-23T02:38:45.796Z,76.50
2017-07-23T02:41:13.378Z,77.80
2017-07-23T02:43:40.939Z,78.80
2017-07-23T02:46:08.518Z,79.60
2017-07-23T02:48:36.068Z,79.70
2017-07-23T02:51:03.692Z,80.20
2017-07-23T02:53:31.361Z,80.70
2017-07-23T02:55:58.918Z,80.60
2017-07-23T02:58:26.485Z,81.50
2017-07-23T03:00:54.027Z,81.70
2017-07-23T03:03:21.605Z,81.70
2017-07-23T03:05:49.159Z,81.80
2017-07-23T03:08:16.734Z,81.90
2017-07-23T03:10:44.288Z,81.80
2017-07-23T03:13:11.871Z,81.80
2017-07-23T03:15:40.213Z,81.50
2017-07-23T03:18:07.753Z,81.40
2017-07-23T03:20:35.343Z,82.60
2017-07-23T03:23:02.893Z,83.40
2017-07-23T03:25:30.442Z,84.90
2017-07-23T03:27:58.018Z,85.10
2017-07-23T03:30:25.566Z,86.90
2017-07-23T03:32:53.147Z,87.70
2017-07-23T03:35:20.684Z,90.00
2017-07-23T03:37:48.245Z,90.50
2017-07-23T03:40:15.830Z,91.50
2017-07-23T03:42:44.148Z,91.60
2017-07-23T03:45:11.734Z,91.50
2017-07-23T03:47:39.275Z,90.90
2017-07-23T03:50:06.867Z,91.40
2017-07-23T03:52:34.401Z,91.10
2017-07-23T03:55:01.943Z,91.20
2017-07-23T03:57:29.515Z,90.80
2017-07-23T03:59:57.054Z,91.20
2017-07-23T04:02:24.754Z,90.70
2017-07-23T04:04:52.301Z,90.70
2017-07-23T04:07:19.876Z,90.90
2017-07-23T04:09:47.414Z,90.90
2017-07-23T04:12:14.989Z,91.00
2017-07-23T04:14:42.615Z,90.80
2017-07-23T04:17:10.157Z,90.80
2017-07-23T04:19:37.742Z,91.30
2017-07-23T04:22:05.287Z,91.80
2017-07-23T04:24:33.045Z,92.10
2017-07-23T04:27:00.573Z,91.70
2017-07-23T04:29:28.157Z,91.40
2017-07-23T04:31:55.697Z,91.90
2017-07-23T04:34:23.248Z,92.40
2017-07-23T04:36:50.936Z,92.40
2017-07-23T04:39:18.470Z,92.40
2017-07-23T04:41:46.021Z,92.30
2017-07-23T04:44:14.448Z,91.80
2017-07-23T04:46:41.983Z,91.80
2017-07-23T04:49:09.526Z,91.50
2017-07-23T04:51:37.110Z,92.30
2017-07-23T04:54:04.701Z,91.60
2017-07-23T04:56:32.319Z,91.60
2017-07-23T04:58:59.859Z,92.40
2017-07-23T05:01:27.446Z,92.10
2017-07-23T05:03:55.002Z,92.10
2017-07-23T05:06:22.578Z,92.40
2017-07-23T05:08:50.145Z,91.70
2017-07-23T05:11:17.734Z,92.20
2017-07-23T05:13:46.059Z,92.20
2017-07-23T05:16:13.598Z,92.20
2017-07-23T05:18:41.187Z,92.10
2017-07-23T05:21:08.728Z,92.10
2017-07-23T05:23:36.269Z,92.40
2017-07-23T05:26:03.841Z,91.60
2017-07-23T05:28:31.424Z,92.40
2017-07-23T05:30:59.024Z,92.50
2017-07-23T05:33:27.353Z,91.40
2017-07-23T05:35:54.939Z,91.40
2017-07-23T05:38:22.569Z,91.90
2017-07-23T05:40:50.131Z,91.90
2017-07-23T05:43:17.715Z,92.10
2017-07-23T05:45:45.278Z,91.80
2017-07-23T05:48:13.701Z,91.60
2017-07-23T05:50:41.285Z,91.90
2017-07-23T05:53:08.848Z,91.50
2017-07-23T05:55:36.449Z,91.50
2017-07-23T05:58:04.047Z,91.50
2017-07-23T06:00:31.597Z,91.40
2017-07-23T06:02:59.187Z,90.90
2017-07-23T06:05:26.739Z,90.00
2017-07-23T06:07:54.296Z,90.20
2017-07-23T06:10:21.859Z,90.30
2017-07-23T06:12:49.397Z,87.90
2017-07-23T06:15:16.977Z,86.80
2017-07-23T06:17:44.504Z,83.00
2017-07-23T06:20:12.062Z,83.00
2017-07-23T06:22:39.614Z,82.60
2017-07-23T06:25:07.199Z,85.90
2017-07-23T06:27:34.746Z,85.70
2017-07-23T06:30:02.309Z,84.80
2017-07-23T06:32:29.984Z,84.10
2017-07-23T06:34:57.525Z,81.50
2017-07-23T06:37:25.066Z,85.10
2017-07-23T06:39:52.756Z,82.80
2017-07-23T06:42:20.288Z,82.20
2017-07-23T06:44:47.878Z,79.60
2017-07-23T06:47:15.546Z,81.30
2017-07-23T06:49:43.102Z,81.70
2017-07-23T06:52:10.689Z,83.20
2017-07-23T06:54:38.233Z,84.40
2017-07-23T06:57:06.546Z,85.30
2017-07-23T06:59:34.137Z,84.70
2017-07-23T07:02:01.673Z,84.20
2017-07-23T07:04:29.223Z,85.50
2017-07-23T07:06:56.794Z,84.50
2017-07-23T07:09:24.534Z,82.30
2017-07-23T07:11:52.102Z,79.00
2017-07-23T07:14:19.655Z,79.10
2017-07-23T07:16:47.198Z,81.30
2017-07-23T07:19:14.902Z,82.90
2017-07-23T07:21:42.457Z,81.70
2017-07-23T07:24:10.040Z,81.30
2017-07-23T07:26:37.629Z,83.60
2017-07-23T07:29:05.976Z,83.30
2017-07-23T07:31:33.529Z,83.30
2017-07-23T07:34:01.078Z,81.60
2017-07-23T07:36:28.647Z,81.40
2017-07-23T07:38:56.206Z,82.20
2017-07-23T07:41:23.747Z,82.00
2017-07-23T07:43:51.329Z,81.30
2017-07-23T07:46:19.065Z,81.00
2017-07-23T07:48:46.610Z,81.20
2017-07-23T07:51:14.164Z,81.20
2017-07-23T07:53:41.820Z,79.00
2017-07-23T07:56:09.376Z,78.20
2017-07-23T07:58:36.933Z,74.60
2017-07-23T08:01:04.509Z,71.40
2017-07-23T08:03:32.052Z,68.70
2017-07-23T08:05:59.607Z,65.70
2017-07-23T08:08:27.198Z,65.10
2017-07-23T08:10:54.745Z,65.50
2017-07-23T08:13:22.303Z,65.70
2017-07-23T08:15:49.886Z,66.40
2017-07-23T08:18:17.519Z,64.90
2017-07-23T08:20:45.105Z,66.70
2017-07-23T08:23:12.655Z,64.60
2017-07-23T08:25:40.192Z,61.90
2017-07-23T08:28:07.794Z,62.10
2017-07-23T08:30:36.092Z,62.90
2017-07-23T08:33:03.683Z,62.50
2017-07-23T08:35:31.471Z,60.20
2017-07-23T08:37:59.031Z,61.20
2017-07-23T08:40:26.649Z,62.30
2017-07-23T08:42:54.186Z,60.00
2017-07-23T08:45:21.776Z,60.10
2017-07-23T08:47:49.322Z,60.20
2017-07-23T08:50:16.867Z,57.10
2017-07-23T08:52:44.447Z,57.40
2017-07-23T08:55:11.987Z,57.30
2017-07-23T08:57:39.583Z,55.60
2017-07-23T09:00:07.197Z,56.40
2017-07-23T09:02:34.739Z,55.80
2017-07-23T09:05:03.111Z,57.60
2017-07-23T09:07:31.421Z,57.40
2017-07-23T09:09:58.970Z,57.30
2017-07-23T09:12:26.726Z,57.30
2017-07-23T09:14:54.277Z,57.20
2017-07-23T09:17:21.854Z,57.40
2017-07-23T09:19:49.409Z,57.40
2017-07-23T09:22:16.993Z,58.00
2017-07-23T09:24:44.542Z,57.00
2017-07-23T09:27:12.077Z,57.50
2017-07-23T09:29:39.690Z,56.60
2017-07-23T09:32:07.275Z,56.80
2017-07-23T09:34:35.592Z,55.80
2017-07-23T09:37:03.139Z,55.80
2017-07-23T09:39:30.732Z,56.20
2017-07-23T09:41:58.274Z,55.10
2017-07-23T09:44:25.941Z,55.90
2017-07-23T09:46:53.625Z,55.00
2017-07-23T09:49:21.235Z,55.40
2017-07-23T09:51:48.806Z,52.60
2017-07-23T09:54:16.361Z,52.00
2017-07-23T09:56:43.913Z,53.20
2017-07-23T09:59:11.542Z,53.10
2017-07-23T10:01:39.842Z,52.30
2017-07-23T10:04:07.423Z,52.20
2017-07-23T10:06:35.054Z,51.40
2017-07-23T10:09:02.590Z,51.40
2017-07-23T10:11:30.888Z,55.20
2017-07-23T10:13:58.492Z,55.10
2017-07-23T10:16:26.062Z,52.60
2017-07-23T10:18:53.753Z,54.40
2017-07-23T10:21:28.333Z,57.00
2017-07-23T10:23:55.926Z,56.30
2017-07-23T10:26:24.237Z,53.80
2017-07-23T10:28:51.796Z,53.80
2017-07-23T10:31:19.499Z,52.30
2017-07-23T10:33:47.048Z,49.20
2017-07-23T10:36:14.628Z,50.40
2017-07-23T10:38:42.956Z,48.10
2017-07-23T10:41:10.697Z,48.10
2017-07-23T10:43:38.273Z,45.40
2017-07-23T10:46:05.812Z,46.80
2017-07-23T10:48:33.381Z,47.90
2017-07-23T10:51:00.941Z,48.80
2017-07-23T10:53:28.498Z,49.60
2017-07-23T10:55:56.074Z,49.70
2017-07-23T10:58:23.673Z,51.20
2017-07-23T11:00:52.104Z,48.20
2017-07-23T11:03:19.667Z,47.30
2017-07-23T11:05:47.257Z,49.10
2017-07-23T11:08:14.799Z,47.20
2017-07-23T11:10:42.432Z,46.30
2017-07-23T11:13:10.082Z,46.80
2017-07-23T11:15:37.702Z,47.70
2017-07-23T11:18:05.360Z,46.20
2017-07-23T11:20:32.908Z,45.20
2017-07-23T11:23:00.449Z,44.50
2017-07-23T11:25:28.035Z,46.50
2017-07-23T11:27:55.687Z,46.80
2017-07-23T11:30:23.395Z,47.90
2017-07-23T11:32:50.927Z,45.80
2017-07-23T11:35:19.298Z,45.30
2017-07-23T11:37:56.624Z,45.30
2017-07-23T11:40:24.209Z,44.50
2017-07-23T11:42:51.788Z,44.80
2017-07-23T11:45:19.333Z,45.20
2017-07-23T11:47:46.883Z,46.30
2017-07-23T11:50:14.476Z,46.80
2017-07-23T11:52:42.954Z,46.20
2017-07-23T11:55:11.317Z,46.50
2017-07-23T11:57:38.884Z,46.50
2017-07-23T12:00:06.427Z,45.50
2017-07-23T12:02:34.113Z,46.40
2017-07-23T12:05:02.639Z,44.50
2017-07-23T12:07:30.195Z,44.30
2017-07-23T12:09:57.783Z,44.80
2017-07-23T12:12:25.328Z,43.90
2017-07-23T12:14:52.886Z,41.70
2017-07-23T12:17:20.471Z,43.40
2017-07-23T12:19:48.025Z,41.50
2017-07-23T12:22:15.573Z,41.50
2017-07-23T12:24:43.132Z,43.30
2017-07-23T12:27:10.754Z,42.70
2017-07-23T12:29:38.467Z,43.50
2017-07-23T12:32:06.773Z,43.00
2017-07-23T12:34:34.331Z,43.00
2017-07-23T12:37:01.908Z,44.40
2017-07-23T12:39:29.453Z,44.40
2017-07-23T12:41:57.044Z,45.40
2017-07-23T12:44:24.593Z,44.60
2017-07-23T12:46:52.142Z,45.60
2017-07-23T12:49:19.720Z,44.60
2017-07-23T12:51:47.272Z,46.30
2017-07-23T12:54:14.883Z,44.60
2017-07-23T12:56:43.356Z,44.40
2017-07-23T12:59:10.934Z,44.40
2017-07-23T13:01:38.477Z,44.30
2017-07-23T13:04:06.798Z,46.00
2017-07-23T13:06:34.524Z,45.90
2017-07-23T13:09:02.075Z,45.40
2017-07-23T13:11:30.441Z,45.30
2017-07-23T13:13:57.977Z,45.30
2017-07-23T13:16:25.522Z,46.50
2017-07-23T13:18:53.129Z,46.90
2017-07-23T13:21:21.442Z,45.90
2017-07-23T13:23:49.001Z,45.80
2017-07-23T13:26:16.582Z,46.90
2017-07-23T13:28:44.186Z,46.30
2017-07-23T13:31:12.632Z,46.70
2017-07-23T13:33:40.231Z,46.70
2017-07-23T13:36:07.823Z,45.10
2017-07-23T13:38:35.364Z,45.30
2017-07-23T13:41:02.914Z,47.80
2017-07-23T13:43:30.491Z,43.70
2017-07-23T13:45:58.032Z,47.10
2017-07-23T13:48:25.608Z,43.80
2017-07-23T13:50:53.191Z,42.60
2017-07-23T13:53:20.729Z,42.60
2017-07-23T13:55:48.295Z,43.90
2017-07-23T13:58:15.933Z,45.20
2017-07-23T14:00:43.522Z,43.10
2017-07-23T14:03:11.059Z,42.80
2017-07-23T14:05:38.698Z,43.40
2017-07-23T14:08:06.275Z,44.70
2017-07-23T14:10:33.825Z,44.70
2017-07-23T14:13:01.451Z,43.70
2017-07-23T14:15:29.766Z,44.10
2017-07-23T14:17:57.349Z,44.10
2017-07-23T14:20:25.018Z,44.10
2017-07-23T14:22:52.572Z,44.50
2017-07-23T14:25:20.167Z,41.90
2017-07-23T14:27:48.490Z,42.80
2017-07-23T14:30:16.046Z,42.80
2017-07-23T14:32:43.826Z,44.30
2017-07-23T14:35:11.429Z,42.60
2017-07-23T14:37:39.033Z,41.50
2017-07-23T14:40:07.252Z,42.30
2017-07-23T14:42:35.597Z,41.90
2017-07-23T14:45:03.191Z,41.70
2017-07-23T14:47:31.489Z,43.80
2017-07-23T14:49:59.079Z,43.80
2017-07-23T14:52:26.632Z,41.10
2017-07-23T14:54:54.210Z,41.30
2017-07-23T14:57:21.777Z,42.60
2017-07-23T14:59:49.352Z,41.80
2017-07-23T15:02:16.933Z,41.80
2017-07-23T15:04:44.498Z,41.30
2017-07-23T15:07:12.110Z,42.00
2017-07-23T15:09:39.667Z,42.10
2017-07-23T15:12:07.216Z,44.00
2017-07-23T15:14:34.807Z,42.20
2017-07-23T15:17:03.133Z,44.20
2017-07-23T15:19:30.722Z,44.20
2017-07-23T15:21:58.270Z,42.50
2017-07-23T15:24:25.826Z,44.10
2017-07-23T15:26:53.551Z,43.20
2017-07-23T15:29:21.086Z,44.30
2017-07-23T15:31:48.643Z,44.10
2017-07-23T15:34:16.204Z,43.30
2017-07-23T15:36:43.873Z,44.40
2017-07-23T15:39:11.453Z,44.30
2017-07-23T15:41:39.096Z,44.50
2017-07-23T15:44:06.639Z,43.50
2017-07-23T15:46:34.316Z,45.00
2017-07-23T15:49:01.876Z,43.40
2017-07-23T15:51:29.428Z,44.10
2017-07-23T15:53:57.066Z,42.40
2017-07-23T15:56:25.401Z,41.20
2017-07-23T15:58:52.978Z,41.20
2017-07-23T16:01:20.540Z,41.80
2017-07-23T16:03:48.085Z,41.60
2017-07-23T16:06:15.690Z,40.00
2017-07-23T16:08:43.238Z,39.70
2017-07-23T16:11:10.805Z,39.50
2017-07-23T16:13:38.377Z,39.50
2017-07-23T16:16:06.009Z,39.40
2017-07-23T16:18:34.366Z,38.10
2017-07-23T16:21:01.919Z,38.10
2017-07-23T16:23:29.456Z,40.00
2017-07-23T16:25:57.034Z,40.60
2017-07-23T16:28:24.577Z,41.10
2017-07-23T16:30:52.158Z,43.10
2017-07-23T16:33:20.480Z,43.40
2017-07-23T16:35:48.080Z,43.40
2017-07-23T16:38:15.654Z,43.20
2017-07-23T16:40:43.190Z,43.30
2017-07-23T16:43:10.799Z,42.60
2017-07-23T16:45:38.353Z,43.20
2017-07-23T16:48:05.900Z,42.20
2017-07-23T16:50:34.257Z,42.60
2017-07-23T16:53:01.799Z,42.50
2017-07-23T16:55:29.357Z,42.70
2017-07-23T16:57:56.992Z,43.00
2017-07-23T17:00:24.595Z,42.70
2017-07-23T17:02:52.958Z,45.80
2017-07-23T17:05:20.512Z,46.10
2017-07-23T17:07:48.089Z,44.70
2017-07-23T17:10:16.425Z,43.50
2017-07-23T17:12:43.974Z,43.20
2017-07-23T17:15:11.633Z,43.60
2017-07-23T17:17:39.174Z,42.20
2017-07-23T17:20:06.782Z,43.20
2017-07-23T17:22:34.326Z,44.20
2017-07-23T17:25:01.957Z,43.20
2017-07-23T17:27:29.542Z,43.60
2017-07-23T17:29:57.091Z,45.10
2017-07-23T17:32:24.678Z,45.50
2017-07-23T17:34:52.226Z,46.30
2017-07-23T17:37:19.826Z,44.80
2017-07-23T17:39:48.145Z,44.40
2017-07-23T17:42:15.682Z,44.40
2017-07-23T17:44:43.424Z,44.80
2017-07-23T17:47:11.747Z,45.00
2017-07-23T17:49:39.325Z,45.00
2017-07-23T17:52:06.869Z,46.30
2017-07-23T17:54:34.454Z,45.00
2017-07-23T17:57:02.022Z,46.50
2017-07-23T17:59:30.341Z,47.20
2017-07-23T18:01:57.921Z,47.10
2017-07-23T18:04:25.458Z,46.80
2017-07-23T18:06:53.042Z,47.00
2017-07-23T18:09:20.603Z,47.20
2017-07-23T18:11:48.183Z,47.40
2017-07-23T18:14:16.501Z,48.80
2017-07-23T18:16:44.049Z,48.10
2017-07-23T18:19:11.728Z,48.90
2017-07-23T18:21:39.262Z,49.50
2017-07-23T18:24:06.856Z,48.50
2017-07-23T18:26:34.445Z,50.00
2017-07-23T18:29:02.010Z,50.10
2017-07-23T18:31:30.368Z,50.20
2017-07-23T18:33:57.918Z,50.70
2017-07-23T18:36:25.553Z,50.80
2017-07-23T18:38:53.100Z,49.80
2017-07-23T18:41:20.708Z,50.40
2017-07-23T18:43:48.268Z,51.30
2017-07-23T18:46:15.817Z,51.60
2017-07-23T18:48:43.397Z,51.70
2017-07-23T18:51:11.714Z,51.90
2017-07-23T18:53:39.313Z,51.90
2017-07-23T18:56:06.876Z,51.20
2017-07-23T18:58:34.459Z,51.10
2017-07-23T19:01:02.769Z,51.30
2017-07-23T19:03:30.346Z,51.20
2017-07-23T19:05:57.925Z,51.70
2017-07-23T19:08:25.482Z,51.40
2017-07-23T19:10:53.067Z,51.50
2017-07-23T19:13:21.386Z,51.50
2017-07-23T19:15:49.002Z,51.30
2017-07-23T19:18:17.389Z,51.70
2017-07-23T19:20:44.959Z,51.50
2017-07-23T19:23:12.545Z,51.70
2017-07-23T19:25:40.106Z,52.50
2017-07-23T19:28:07.777Z,52.80
2017-07-23T19:30:35.356Z,52.60
2017-07-23T19:33:02.922Z,53.10
2017-07-23T19:35:30.518Z,54.00
2017-07-23T19:37:58.068Z,54.70
2017-07-23T19:40:25.623Z,55.00
2017-07-23T19:42:53.189Z,55.10
2017-07-23T19:45:20.786Z,55.40
2017-07-23T19:47:48.342Z,55.80
2017-07-23T19:50:15.956Z,56.10
2017-07-23T19:52:43.536Z,56.30
2017-07-23T19:55:11.087Z,56.60
2017-07-23T19:57:38.684Z,57.40
2017-07-23T20:00:06.267Z,57.90
2017-07-23T20:02:34.597Z,58.00
2017-07-23T20:05:02.291Z,57.90
2017-07-23T20:07:29.848Z,58.60
2017-07-23T20:09:58.398Z,58.30
2017-07-23T20:12:25.991Z,58.60
2017-07-23T20:14:53.602Z,58.30
2017-07-23T20:17:21.189Z,58.80
2017-07-23T20:19:48.750Z,59.20
2017-07-23T20:22:16.344Z,60.00
2017-07-23T20:24:44.867Z,59.20
2017-07-23T20:27:12.491Z,59.20
2017-07-23T20:29:41.024Z,60.20
2017-07-23T20:32:08.583Z,60.20
2017-07-23T20:34:36.138Z,60.00
2017-07-23T20:37:03.856Z,59.50
2017-07-23T20:39:32.205Z,59.10
2017-07-23T20:41:59.745Z,59.00
2017-07-23T20:44:27.462Z,59.20
2017-07-23T20:46:55.054Z,61.10
2017-07-23T20:49:22.630Z,61.30
2017-07-23T20:51:50.174Z,60.90
2017-07-23T20:54:17.762Z,60.80
2017-07-23T20:56:46.069Z,63.30
2017-07-23T20:59:13.656Z,62.50
2017-07-23T21:01:41.219Z,62.20
2017-07-23T21:04:08.806Z,62.30
2017-07-23T21:06:36.406Z,63.10
2017-07-23T21:09:03.938Z,62.60
2017-07-23T21:11:32.297Z,62.50
2017-07-23T21:13:59.855Z,62.40
2017-07-23T21:16:27.469Z,62.40
2017-07-23T21:18:55.073Z,62.20
2017-07-23T21:21:22.617Z,62.10
2017-07-23T21:23:50.206Z,62.00
2017-07-23T21:26:18.520Z,63.50
2017-07-23T21:28:46.085Z,62.50
2017-07-23T21:31:13.681Z,63.30
2017-07-23T21:33:41.324Z,63.50
2017-07-23T21:36:08.901Z,63.00
2017-07-23T21:38:36.473Z,64.20
2017-07-23T21:41:05.542Z,64.40
2017-07-23T21:43:33.145Z,64.20
2017-07-23T21:46:00.701Z,64.70
2017-07-23T21:48:28.245Z,65.50
2017-07-23T21:50:56.587Z,63.80
2017-07-23T21:53:24.131Z,63.70
2017-07-23T21:55:51.698Z,63.90
2017-07-23T21:58:19.249Z,62.90
2017-07-23T22:00:46.898Z,64.10
2017-07-23T22:03:14.491Z,65.00
2017-07-23T22:05:42.028Z,64.00
2017-07-23T22:08:09.582Z,63.90
2017-07-23T22:10:37.236Z,64.10
2017-07-23T22:13:04.782Z,64.30
2017-07-23T22:15:32.330Z,63.60
2017-07-23T22:17:59.874Z,63.90
2017-07-23T22:20:27.422Z,64.20
2017-07-23T22:22:55.738Z,65.00
2017-07-23T22:25:23.330Z,65.00
2017-07-23T22:27:50.915Z,65.50
2017-07-23T22:30:19.464Z,65.40
2017-07-23T22:32:47.050Z,65.40
2017-07-23T22:35:15.364Z,65.30
2017-07-23T22:37:43.068Z,65.30
2017-07-23T22:40:10.691Z,64.50
2017-07-23T22:42:38.243Z,64.40
2017-07-23T22:45:05.826Z,64.90
2017-07-23T22:47:33.369Z,64.00
2017-07-23T22:50:01.125Z,64.40
2017-07-23T22:52:28.700Z,65.00
2017-07-23T22:54:56.340Z,65.10
2017-07-23T22:57:23.925Z,64.20
2017-07-23T22:59:51.467Z,65.00
2017-07-23T23:02:19.058Z,65.00
2017-07-23T23:04:46.597Z,65.50
2017-07-23T23:07:14.134Z,65.90
2017-07-23T23:09:41.722Z,65.80
2017-07-23T23:12:09.271Z,65.80
2017-07-23T23:14:36.852Z,65.80
2017-07-23T23:17:04.433Z,65.90
2017-07-23T23:19:32.944Z,66.00
2017-07-23T23:22:00.503Z,65.90
2017-07-23T23:24:28.046Z,64.90
2017-07-23T23:26:55.642Z,64.40
2017-07-23T23:29:23.182Z,63.90
2017-07-23T23:31:50.780Z,64.90
2017-07-23T23:34:18.365Z,65.00
2017-07-23T23:36:46.705Z,65.50
2017-07-23T23:39:14.431Z,65.40
2017-07-23T23:41:41.989Z,66.40
2017-07-23T23:44:09.532Z,66.30
2017-07-23T23:46:37.109Z,66.90
2017-07-23T23:49:04.653Z,67.50
2017-07-23T23:51:32.360Z,66.80
2017-07-23T23:53:59.906Z,67.50
2017-07-23T23:56:27.445Z,67.90
2017-07-23T23:58:55.091Z,67.70
